Time;durP1;ratioP1;P1;durP2;ratioP2;P2;SDS_P1;SDS_P2;PMS_P1;PMS_P2;Temp;Humidity;BMP_temperature;BMP_pressure;BME280_temperature;BME280_humidity;BME280_pressure;Samples;Min_cycle;Max_cycle;Signal;HPM_P1;HPM_P2
2022/10/25 00:02:31;;;;;;;8.88;6.50;;;;;;;;;;10404401;28;20025;-58
2022/10/25 00:07:31;;;;;;;10.13;6.38;;;;;;;;;;10404680;28;20405;-58
2022/10/25 00:12:32;;;;;;;13.20;6.75;;;;;;;;;;10391587;28;20026;-51
2022/10/25 00:17:32;;;;;;;9.98;6.22;;;;;;;;;;10393679;28;20068;-58
2022/10/25 00:22:32;;;;;;;15.17;6.57;;;;;;;;;;10397113;28;20075;-59
2022/10/25 00:27:34;;;;;;;8.85;6.40;;;;;;;;;;10396729;28;21021;-56
2022/10/25 00:32:34;;;;;;;13.77;6.30;;;;;;;;;;10410894;28;20209;-57
2022/10/25 00:37:35;;;;;;;11.37;6.10;;;;;;;;;;10397603;28;20909;-58
2022/10/25 00:42:35;;;;;;;6.97;5.72;;;;;;;;;;10401149;28;20474;-58
2022/10/25 00:47:38;;;;;;;8.82;5.82;;;;;;;;;;10394341;28;20473;-51
2022/10/25 00:52:40;;;;;;;8.40;5.93;;;;;;;;;;10389222;28;20029;-58
2022/10/25 00:57:46;;;;;;;8.30;5.60;;;;;;;;;;10399770;28;20068;-57
2022/10/25 01:02:46;;;;;;;11.60;6.25;;;;;;;;;;10406007;28;20037;-58
2022/10/25 01:07:46;;;;;;;14.15;5.85;;;;;;;;;;10408193;28;20029;-58
2022/10/25 01:12:47;;;;;;;13.13;6.53;;;;;;;;;;10403069;28;20034;-58
2022/10/25 01:18:00;;;;;;;12.27;5.88;;;;;;;;;;10390657;28;20471;-55
2022/10/25 01:23:01;;;;;;;11.70;5.90;;;;;;;;;;10388621;28;20033;-58
2022/10/25 01:28:20;;;;;;;8.57;6.18;;;;;;;;;;10400181;28;20029;-57
2022/10/25 01:33:30;;;;;;;8.30;5.57;;;;;;;;;;10394714;28;20022;-52
2022/10/25 01:38:49;;;;;;;8.60;6.15;;;;;;;;;;10395216;28;20021;-57
2022/10/25 01:43:55;;;;;;;12.00;6.20;;;;;;;;;;10406375;28;20033;-56
2022/10/25 01:49:02;;;;;;;10.15;5.40;;;;;;;;;;10403649;28;20129;-58
2022/10/25 01:54:02;;;;;;;6.90;5.45;;;;;;;;;;10402947;28;20064;-57
2022/10/25 01:59:17;;;;;;;9.83;5.33;;;;;;;;;;10390263;28;20045;-58
2022/10/25 02:04:37;;;;;;;9.82;5.90;;;;;;;;;;10394627;28;21001;-54
2022/10/25 02:09:56;;;;;;;5.95;4.85;;;;;;;;;;10380359;28;20128;-58
2022/10/25 02:15:06;;;;;;;8.90;5.30;;;;;;;;;;10388456;28;20485;-51
2022/10/25 02:20:07;;;;;;;9.05;5.10;;;;;;;;;;10398911;28;20036;-59
2022/10/25 02:25:08;;;;;;;9.43;5.88;;;;;;;;;;10387797;28;20366;-58
2022/10/25 02:30:09;;;;;;;8.02;5.25;;;;;;;;;;10394104;28;20068;-57
2022/10/25 02:35:17;;;;;;;12.25;5.45;;;;;;;;;;10380146;28;20117;-55
2022/10/25 02:40:17;;;;;;;5.78;5.07;;;;;;;;;;10399546;28;20033;-54
2022/10/25 02:45:18;;;;;;;10.25;5.65;;;;;;;;;;10389930;28;20444;-52
2022/10/25 02:50:18;;;;;;;7.37;5.20;;;;;;;;;;10389686;28;20128;-58
2022/10/25 02:55:18;;;;;;;5.85;5.00;;;;;;;;;;10403087;28;20462;-57
2022/10/25 03:00:19;;;;;;;7.72;5.15;;;;;;;;;;10390233;28;20551;-59
2022/10/25 03:05:19;;;;;;;6.80;5.07;;;;;;;;;;10402884;28;20511;-58
2022/10/25 03:10:19;;;;;;;12.23;5.57;;;;;;;;;;10379963;28;20362;-57
2022/10/25 03:15:19;;;;;;;8.80;5.20;;;;;;;;;;10400629;28;20116;-51
2022/10/25 03:20:20;;;;;;;9.50;5.38;;;;;;;;;;10390418;28;20022;-58
2022/10/25 03:25:20;;;;;;;8.02;5.28;;;;;;;;;;10386941;28;20029;-57
2022/10/25 03:30:20;;;;;;;5.25;4.75;;;;;;;;;;10392209;28;20029;-57
2022/10/25 03:35:20;;;;;;;7.25;5.03;;;;;;;;;;10394911;28;20112;-58
2022/10/25 03:40:21;;;;;;;6.33;4.83;;;;;;;;;;10398220;28;20105;-53
2022/10/25 03:45:21;;;;;;;9.00;5.22;;;;;;;;;;10379549;28;20475;-57
2022/10/25 03:50:21;;;;;;;7.43;4.60;;;;;;;;;;10381664;28;20037;-57
2022/10/25 03:55:22;;;;;;;9.90;5.10;;;;;;;;;;10397940;28;20017;-47
2022/10/25 04:00:22;;;;;;;8.10;4.65;;;;;;;;;;10398258;28;20041;-52
2022/10/25 04:05:22;;;;;;;6.85;4.53;;;;;;;;;;10396143;28;20028;-46
2022/10/25 04:10:23;;;;;;;8.17;4.83;;;;;;;;;;10408658;28;20049;-46
2022/10/25 04:15:23;;;;;;;6.22;4.28;;;;;;;;;;10398647;28;20038;-53
2022/10/25 04:20:23;;;;;;;5.68;4.57;;;;;;;;;;10408454;28;20088;-46
2022/10/25 04:25:24;;;;;;;7.05;4.68;;;;;;;;;;10405153;28;20456;-45
2022/10/25 04:30:25;;;;;;;7.90;4.50;;;;;;;;;;10407830;28;20492;-48
2022/10/25 04:35:25;;;;;;;6.63;4.45;;;;;;;;;;10408709;28;20530;-51
2022/10/25 04:40:25;;;;;;;6.80;4.60;;;;;;;;;;10412147;28;20029;-45
2022/10/25 04:45:25;;;;;;;6.65;4.70;;;;;;;;;;10410925;28;20037;-47
2022/10/25 04:50:26;;;;;;;5.35;4.35;;;;;;;;;;10410448;28;20030;-56
2022/10/25 04:55:26;;;;;;;4.28;3.83;;;;;;;;;;10388625;28;20454;-57
2022/10/25 05:00:26;;;;;;;5.77;3.70;;;;;;;;;;10410868;28;20049;-46
2022/10/25 05:05:27;;;;;;;5.63;3.88;;;;;;;;;;10402568;28;20040;-46
2022/10/25 05:10:27;;;;;;;5.90;3.95;;;;;;;;;;10400482;28;20615;-49
2022/10/25 05:15:28;;;;;;;4.72;3.35;;;;;;;;;;10404844;28;20021;-53
2022/10/25 05:20:28;;;;;;;16.48;4.20;;;;;;;;;;10400713;28;20022;-46
2022/10/25 05:25:28;;;;;;;16.03;4.50;;;;;;;;;;10397465;28;20048;-52
2022/10/25 05:30:29;;;;;;;9.40;3.95;;;;;;;;;;10403642;28;20021;-47
2022/10/25 05:35:29;;;;;;;11.05;3.95;;;;;;;;;;10396347;28;20079;-46
2022/10/25 05:40:29;;;;;;;7.78;3.97;;;;;;;;;;10399861;28;20021;-46
2022/10/25 05:45:29;;;;;;;7.97;4.10;;;;;;;;;;10396806;28;20039;-46
2022/10/25 05:50:30;;;;;;;4.37;3.57;;;;;;;;;;10397439;28;20116;-54
2022/10/25 05:55:30;;;;;;;6.35;4.10;;;;;;;;;;10402439;28;20113;-48
2022/10/25 06:00:30;;;;;;;6.45;3.95;;;;;;;;;;10399735;28;20048;-51
2022/10/25 06:05:31;;;;;;;8.95;3.97;;;;;;;;;;10399518;28;20163;-53
2022/10/25 06:10:32;;;;;;;8.93;4.40;;;;;;;;;;10406783;28;20025;-54
2022/10/25 06:15:32;;;;;;;8.40;3.87;;;;;;;;;;10404158;28;20029;-54
2022/10/25 06:20:32;;;;;;;8.55;4.50;;;;;;;;;;10405139;28;20018;-58
2022/10/25 06:25:32;;;;;;;7.38;3.70;;;;;;;;;;10400832;28;20034;-53
2022/10/25 06:30:33;;;;;;;7.40;4.33;;;;;;;;;;10403939;28;20404;-56
2022/10/25 06:35:33;;;;;;;7.18;3.83;;;;;;;;;;10414942;28;20424;-48
2022/10/25 06:40:34;;;;;;;11.48;3.78;;;;;;;;;;10401635;28;20108;-48
2022/10/25 06:45:34;;;;;;;8.63;3.58;;;;;;;;;;10395875;28;20393;-49
2022/10/25 06:50:34;;;;;;;17.80;4.10;;;;;;;;;;10406322;28;20037;-54
2022/10/25 06:55:35;;;;;;;8.73;4.17;;;;;;;;;;10404515;28;20481;-52
2022/10/25 07:00:35;;;;;;;6.70;3.78;;;;;;;;;;10399618;28;20056;-54
2022/10/25 07:05:35;;;;;;;12.57;3.83;;;;;;;;;;10404142;28;20453;-55
2022/10/25 07:10:35;;;;;;;7.45;3.83;;;;;;;;;;10401033;28;20051;-49
2022/10/25 07:15:36;;;;;;;6.53;3.25;;;;;;;;;;10400161;28;20037;-47
2022/10/25 07:20:36;;;;;;;7.93;3.70;;;;;;;;;;10404588;28;20021;-50
2022/10/25 07:25:36;;;;;;;5.00;3.63;;;;;;;;;;10402542;28;20064;-52
2022/10/25 07:30:36;;;;;;;4.07;3.67;;;;;;;;;;10404970;28;20025;-48
2022/10/25 07:40:55;;;;;;;7.57;3.90;;;;;;;;;;10348494;28;20046;-54
2022/10/25 07:45:56;;;;;;;5.75;3.40;;;;;;;;;;10372225;28;20057;-54
2022/10/25 07:50:56;;;;;;;7.73;3.57;;;;;;;;;;10370978;28;20466;-56
2022/10/25 07:55:56;;;;;;;11.10;3.60;;;;;;;;;;10372635;28;20091;-57
2022/10/25 08:01:04;;;;;;;4.40;2.90;;;;;;;;;;10373816;28;20099;-56
2022/10/25 08:06:04;;;;;;;5.15;3.15;;;;;;;;;;10366125;28;20030;-55
2022/10/25 08:11:07;;;;;;;3.60;3.03;;;;;;;;;;10368816;28;20034;-57
2022/10/25 08:16:07;;;;;;;4.82;3.30;;;;;;;;;;10368309;28;20420;-59
2022/10/25 08:21:07;;;;;;;4.05;3.17;;;;;;;;;;10378850;28;20025;-60
2022/10/25 08:26:08;;;;;;;5.57;2.92;;;;;;;;;;10377273;28;20396;-60
2022/10/25 08:31:09;;;;;;;4.45;2.75;;;;;;;;;;10359874;28;20033;-60
2022/10/25 08:36:11;;;;;;;9.05;3.85;;;;;;;;;;10370653;28;20057;-59
2022/10/25 08:41:17;;;;;;;4.25;2.63;;;;;;;;;;10366773;28;20449;-59
2022/10/25 08:46:23;;;;;;;4.47;3.00;;;;;;;;;;10368987;28;20087;-59
2022/10/25 08:51:26;;;;;;;4.43;3.17;;;;;;;;;;10365804;28;20108;-60
2022/10/25 08:56:27;;;;;;;5.63;2.90;;;;;;;;;;10367506;28;20041;-59
2022/10/25 09:01:30;;;;;;;5.43;3.05;;;;;;;;;;10370956;28;20058;-60
2022/10/25 09:06:40;;;;;;;5.30;3.05;;;;;;;;;;10371547;28;20085;-61
2022/10/25 09:11:40;;;;;;;5.45;2.70;;;;;;;;;;10368247;28;20038;-59
2022/10/25 09:16:49;;;;;;;4.20;3.13;;;;;;;;;;10366711;28;20030;-60
2022/10/25 09:21:52;;;;;;;6.43;3.15;;;;;;;;;;10367383;28;20044;-59
2022/10/25 09:26:52;;;;;;;4.45;3.10;;;;;;;;;;10366788;28;20065;-57
2022/10/25 09:31:57;;;;;;;3.75;2.78;;;;;;;;;;10382870;28;20465;-59
2022/10/25 09:37:02;;;;;;;7.30;2.80;;;;;;;;;;10366655;28;20085;-60
2022/10/25 09:42:03;;;;;;;4.57;2.53;;;;;;;;;;10361194;28;20027;-59
2022/10/25 09:47:03;;;;;;;4.30;2.88;;;;;;;;;;10347314;28;20029;-58
2022/10/25 09:52:22;;;;;;;7.65;2.38;;;;;;;;;;10337141;28;20026;-56
2022/10/25 09:57:23;;;;;;;2.83;2.33;;;;;;;;;;10371729;28;20124;-55
2022/10/25 10:02:24;;;;;;;5.67;2.30;;;;;;;;;;10367462;28;20544;-57
2022/10/25 10:07:24;;;;;;;3.47;2.78;;;;;;;;;;10363261;28;20096;-57
2022/10/25 10:12:31;;;;;;;2.95;2.50;;;;;;;;;;10345391;28;20026;-57
2022/10/25 10:17:31;;;;;;;6.65;2.60;;;;;;;;;;10364493;28;20653;-58
2022/10/25 10:22:31;;;;;;;3.80;2.27;;;;;;;;;;10361631;28;20033;-56
2022/10/25 10:27:32;;;;;;;2.90;2.28;;;;;;;;;;10356155;28;20034;-58
2022/10/25 10:32:36;;;;;;;3.38;2.78;;;;;;;;;;10364089;28;20033;-59
2022/10/25 10:37:37;;;;;;;3.45;2.03;;;;;;;;;;10360036;28;20081;-59
2022/10/25 10:42:40;;;;;;;4.18;2.08;;;;;;;;;;10362880;28;20061;-58
2022/10/25 10:47:44;;;;;;;5.30;2.47;;;;;;;;;;10374966;28;20386;-58
2022/10/25 10:52:45;;;;;;;3.40;2.38;;;;;;;;;;10363779;28;20444;-60
2022/10/25 10:57:45;;;;;;;7.88;2.22;;;;;;;;;;10366552;28;20132;-58
2022/10/25 11:02:46;;;;;;;3.27;2.10;;;;;;;;;;10366179;28;20037;-59
2022/10/25 11:07:57;;;;;;;3.08;1.73;;;;;;;;;;10359544;28;20031;-60
2022/10/25 11:13:19;;;;;;;4.00;2.05;;;;;;;;;;10363981;28;20072;-59
2022/10/25 11:18:22;;;;;;;2.30;2.10;;;;;;;;;;10364980;28;20034;-57
2022/10/25 11:23:31;;;;;;;4.30;2.35;;;;;;;;;;10365061;28;20120;-59
2022/10/25 11:28:32;;;;;;;3.83;2.50;;;;;;;;;;10365480;28;20365;-60
2022/10/25 11:33:35;;;;;;;8.52;2.13;;;;;;;;;;10366898;28;20032;-59
2022/10/25 11:39:08;;;;;;;2.58;2.20;;;;;;;;;;10371212;28;20053;-59
2022/10/25 11:44:14;;;;;;;4.07;2.22;;;;;;;;;;10318126;28;20046;-60
2022/10/25 11:49:26;;;;;;;3.08;2.17;;;;;;;;;;10363508;28;20110;-55
2022/10/25 11:54:39;;;;;;;2.63;1.75;;;;;;;;;;10365195;28;20033;-59
2022/10/25 11:59:40;;;;;;;3.83;2.17;;;;;;;;;;10363019;28;20366;-60
2022/10/25 12:04:59;;;;;;;4.22;2.03;;;;;;;;;;10347467;28;20037;-57
2022/10/25 12:10:02;;;;;;;4.18;2.30;;;;;;;;;;10346465;28;20029;-55
2022/10/25 12:15:03;;;;;;;4.10;1.92;;;;;;;;;;10345651;28;20038;-58
2022/10/25 12:20:05;;;;;;;3.88;2.30;;;;;;;;;;10379508;28;20026;-58
2022/10/25 12:25:21;;;;;;;3.17;1.73;;;;;;;;;;10366157;28;20038;-56
2022/10/25 12:30:21;;;;;;;6.53;2.10;;;;;;;;;;10372057;28;20156;-58
2022/10/25 12:35:23;;;;;;;2.13;1.58;;;;;;;;;;10365005;28;20030;-59
2022/10/25 12:40:24;;;;;;;2.80;1.90;;;;;;;;;;10365195;28;20049;-58
2022/10/25 12:45:25;;;;;;;3.50;1.98;;;;;;;;;;10363661;28;20057;-59
2022/10/25 12:50:44;;;;;;;3.45;1.73;;;;;;;;;;10364934;28;20060;-57
2022/10/25 12:55:59;;;;;;;2.20;1.80;;;;;;;;;;10371589;28;20498;-59
2022/10/25 13:01:16;;;;;;;2.10;1.83;;;;;;;;;;10371340;28;20030;-59
2022/10/25 13:06:28;;;;;;;4.22;2.10;;;;;;;;;;10359918;28;20068;-59
2022/10/25 13:11:33;;;;;;;3.50;1.63;;;;;;;;;;10360190;28;20037;-59
2022/10/25 13:16:33;;;;;;;2.42;1.75;;;;;;;;;;10363721;28;20092;-59
2022/10/25 13:22:09;;;;;;;1.85;1.73;;;;;;;;;;10363380;28;20081;-59
2022/10/25 13:27:12;;;;;;;2.10;1.90;;;;;;;;;;10269525;28;20038;-59
2022/10/25 13:32:15;;;;;;;3.88;1.70;;;;;;;;;;10369708;28;20057;-59
2022/10/25 13:37:30;;;;;;;2.30;1.77;;;;;;;;;;10365481;28;20588;-59
2022/10/25 13:42:34;;;;;;;4.53;2.38;;;;;;;;;;10368837;28;20026;-59
2022/10/25 13:47:38;;;;;;;1.60;1.50;;;;;;;;;;10364983;28;20111;-59
2022/10/25 13:52:44;;;;;;;2.97;1.70;;;;;;;;;;10363216;28;20037;-55
2022/10/25 13:57:44;;;;;;;2.55;1.65;;;;;;;;;;10362618;28;20369;-59
2022/10/25 14:03:04;;;;;;;1.92;1.60;;;;;;;;;;10367863;28;20056;-60
2022/10/25 14:08:15;;;;;;;2.35;1.67;;;;;;;;;;10368816;28;20034;-59
2022/10/25 14:13:27;;;;;;;2.40;1.70;;;;;;;;;;10360397;28;20186;-59
2022/10/25 14:18:28;;;;;;;2.03;1.52;;;;;;;;;;10359819;28;20033;-60
2022/10/25 14:23:31;;;;;;;3.17;1.60;;;;;;;;;;10360524;28;20042;-58
2022/10/25 14:28:33;;;;;;;2.67;1.48;;;;;;;;;;10357733;28;20057;-59
2022/10/25 14:33:35;;;;;;;1.88;1.77;;;;;;;;;;10362328;28;20060;-60
2022/10/25 14:38:51;;;;;;;2.42;1.58;;;;;;;;;;10367639;28;20048;-58
2022/10/25 14:43:52;;;;;;;1.98;1.48;;;;;;;;;;10360181;28;20381;-60
2022/10/25 14:48:55;;;;;;;1.40;1.30;;;;;;;;;;10362524;28;20033;-60
2022/10/25 14:54:01;;;;;;;2.00;1.45;;;;;;;;;;10364309;28;20378;-59
2022/10/25 14:59:02;;;;;;;2.92;1.35;;;;;;;;;;10375473;28;20037;-60
2022/10/25 15:04:02;;;;;;;1.27;1.20;;;;;;;;;;10362012;28;20131;-57
2022/10/25 15:09:03;;;;;;;1.70;1.53;;;;;;;;;;10354863;28;20159;-60
2022/10/25 15:14:13;;;;;;;2.78;1.50;;;;;;;;;;10365014;28;20034;-60
2022/10/25 15:19:15;;;;;;;1.40;1.30;;;;;;;;;;10360838;28;20041;-57
2022/10/25 15:24:20;;;;;;;2.22;1.40;;;;;;;;;;10364984;28;20034;-58
2022/10/25 15:29:38;;;;;;;2.95;1.50;;;;;;;;;;10365350;28;20036;-58
2022/10/25 15:34:40;;;;;;;1.45;1.20;;;;;;;;;;10366661;28;20038;-60
2022/10/25 15:39:41;;;;;;;1.83;1.60;;;;;;;;;;10370550;28;20503;-56
2022/10/25 15:44:41;;;;;;;2.13;1.50;;;;;;;;;;10364101;28;20143;-59
2022/10/25 15:49:42;;;;;;;2.85;1.48;;;;;;;;;;10372466;28;20030;-51
2022/10/25 15:54:42;;;;;;;5.38;1.30;;;;;;;;;;10364247;28;20030;-53
2022/10/25 15:59:43;;;;;;;2.85;1.85;;;;;;;;;;10373611;28;20041;-51
2022/10/25 16:04:44;;;;;;;1.50;1.23;;;;;;;;;;10383326;28;20037;-53
2022/10/25 16:09:44;;;;;;;1.85;1.25;;;;;;;;;;10371843;28;20033;-49
2022/10/25 16:14:44;;;;;;;2.08;1.33;;;;;;;;;;10372600;28;20476;-51
2022/10/25 16:19:45;;;;;;;1.70;1.27;;;;;;;;;;10370793;28;20440;-53
2022/10/25 16:24:45;;;;;;;2.78;1.30;;;;;;;;;;10372335;28;20393;-53
2022/10/25 16:29:45;;;;;;;3.40;1.40;;;;;;;;;;10384629;28;20038;-52
2022/10/25 16:34:46;;;;;;;2.05;1.23;;;;;;;;;;10369253;28;20021;-52
2022/10/25 16:39:46;;;;;;;2.42;1.23;;;;;;;;;;10369251;28;20041;-58
2022/10/25 16:44:46;;;;;;;1.08;1.08;;;;;;;;;;10371263;28;20129;-57
2022/10/25 16:49:47;;;;;;;1.60;1.30;;;;;;;;;;10366020;28;20030;-52
2022/10/25 16:54:47;;;;;;;1.70;1.37;;;;;;;;;;10365127;28;20073;-51
2022/10/25 16:59:47;;;;;;;2.20;1.38;;;;;;;;;;10366013;28;20463;-55
2022/10/25 17:04:47;;;;;;;2.78;1.52;;;;;;;;;;10373673;28;20034;-53
2022/10/25 17:09:48;;;;;;;1.27;1.17;;;;;;;;;;10348111;28;20034;-56
2022/10/25 17:14:48;;;;;;;3.40;1.42;;;;;;;;;;10340899;28;20144;-55
2022/10/25 17:19:48;;;;;;;2.88;1.30;;;;;;;;;;10347703;28;20029;-50
2022/10/25 17:24:48;;;;;;;3.67;1.55;;;;;;;;;;10341469;28;20095;-50
2022/10/25 17:29:49;;;;;;;2.10;1.55;;;;;;;;;;10337323;28;20031;-51
2022/10/25 17:34:49;;;;;;;1.83;1.50;;;;;;;;;;10335744;28;20026;-51
2022/10/25 17:39:49;;;;;;;2.65;1.48;;;;;;;;;;10338259;28;20133;-53
2022/10/25 17:44:50;;;;;;;3.40;1.48;;;;;;;;;;10355838;28;20033;-54
2022/10/25 17:49:50;;;;;;;2.50;1.55;;;;;;;;;;10339801;28;20030;-49
2022/10/25 17:54:51;;;;;;;2.03;1.35;;;;;;;;;;10368737;28;20030;-53
2022/10/25 17:59:51;;;;;;;3.40;1.80;;;;;;;;;;10357735;28;20051;-48
2022/10/25 18:04:51;;;;;;;2.73;1.37;;;;;;;;;;10350941;28;20401;-58
2022/10/25 18:09:52;;;;;;;2.25;1.48;;;;;;;;;;10357229;28;20045;-50
2022/10/25 18:14:52;;;;;;;1.65;1.20;;;;;;;;;;10359290;28;20033;-51
2022/10/25 18:19:52;;;;;;;5.18;1.52;;;;;;;;;;10368972;28;20026;-53
2022/10/25 18:24:52;;;;;;;7.43;1.43;;;;;;;;;;10356755;28;20129;-52
2022/10/25 18:29:53;;;;;;;4.57;1.70;;;;;;;;;;10365143;28;20040;-52
2022/10/25 18:34:53;;;;;;;1.98;1.30;;;;;;;;;;10367339;28;20030;-52
2022/10/25 18:39:53;;;;;;;4.30;1.47;;;;;;;;;;10366280;28;20073;-51
2022/10/25 18:44:54;;;;;;;4.75;1.60;;;;;;;;;;10362332;28;20026;-49
2022/10/25 18:49:54;;;;;;;5.90;1.73;;;;;;;;;;10363709;28;20040;-51
2022/10/25 18:54:54;;;;;;;2.13;1.60;;;;;;;;;;10363615;28;20386;-52
2022/10/25 18:59:55;;;;;;;1.57;1.20;;;;;;;;;;10359814;28;20545;-52
2022/10/25 19:04:55;;;;;;;6.90;1.27;;;;;;;;;;10372076;28;21298;-48
2022/10/25 19:09:55;;;;;;;1.75;1.25;;;;;;;;;;10365993;28;20404;-49
2022/10/25 19:14:55;;;;;;;18.85;1.48;;;;;;;;;;10362646;28;21312;-50
2022/10/25 19:19:56;;;;;;;3.28;1.33;;;;;;;;;;10365119;28;20107;-50
2022/10/25 19:24:56;;;;;;;6.18;1.10;;;;;;;;;;10357059;28;20042;-51
2022/10/25 19:29:56;;;;;;;1.23;1.13;;;;;;;;;;10364592;28;20089;-56
2022/10/25 19:34:56;;;;;;;1.45;1.20;;;;;;;;;;10366623;28;20025;-52
2022/10/25 19:39:57;;;;;;;2.67;1.42;;;;;;;;;;10365871;28;20108;-53
2022/10/25 19:44:57;;;;;;;1.35;1.17;;;;;;;;;;10356327;28;20116;-49
2022/10/25 19:49:57;;;;;;;3.78;1.30;;;;;;;;;;10353447;28;20060;-53
2022/10/25 19:54:57;;;;;;;4.97;1.30;;;;;;;;;;10363363;28;20056;-52
2022/10/25 19:59:58;;;;;;;1.80;1.30;;;;;;;;;;10378579;28;20470;-53
2022/10/25 20:04:58;;;;;;;2.35;1.20;;;;;;;;;;10364920;28;20448;-53
2022/10/25 20:09:58;;;;;;;6.17;1.37;;;;;;;;;;10364090;28;20389;-52
2022/10/25 20:14:59;;;;;;;9.55;1.45;;;;;;;;;;10351999;28;20092;-52
2022/10/25 20:19:59;;;;;;;4.93;1.80;;;;;;;;;;10364682;28;20174;-53
2022/10/25 20:24:59;;;;;;;6.17;1.50;;;;;;;;;;10351705;28;20389;-52
2022/10/25 20:29:59;;;;;;;4.82;1.40;;;;;;;;;;10352060;28;20385;-53
2022/10/25 20:35:00;;;;;;;2.70;1.20;;;;;;;;;;10360609;28;20474;-52
2022/10/25 20:40:02;;;;;;;8.90;1.80;;;;;;;;;;10351703;28;20046;-50
2022/10/25 20:45:03;;;;;;;4.88;1.60;;;;;;;;;;10361965;28;20107;-51
2022/10/25 20:50:03;;;;;;;1.77;1.40;;;;;;;;;;10360506;28;20442;-53
2022/10/25 20:55:04;;;;;;;6.00;1.52;;;;;;;;;;10372043;28;20447;-52
2022/10/25 21:00:04;;;;;;;10.82;1.77;;;;;;;;;;10370830;28;20038;-52
2022/10/25 21:05:05;;;;;;;4.55;1.60;;;;;;;;;;10364410;28;20034;-52
2022/10/25 21:10:05;;;;;;;5.45;1.50;;;;;;;;;;10372103;28;20055;-49
2022/10/25 21:15:07;;;;;;;3.28;1.50;;;;;;;;;;10369197;28;20110;-53
2022/10/25 21:20:07;;;;;;;5.35;1.75;;;;;;;;;;10364800;28;20157;-51
2022/10/25 21:25:08;;;;;;;6.10;1.77;;;;;;;;;;10353445;28;20046;-52
2022/10/25 21:30:08;;;;;;;6.72;1.65;;;;;;;;;;10358382;28;20034;-50
2022/10/25 21:35:09;;;;;;;8.93;2.05;;;;;;;;;;10363855;28;20109;-52
2022/10/25 21:40:09;;;;;;;6.63;1.67;;;;;;;;;;10357996;28;20213;-51
2022/10/25 21:45:10;;;;;;;2.33;1.47;;;;;;;;;;10366663;28;20084;-51
2022/10/25 21:50:10;;;;;;;4.47;1.75;;;;;;;;;;10353626;28;20873;-50
2022/10/25 21:55:10;;;;;;;8.85;2.20;;;;;;;;;;10343609;28;20026;-52
2022/10/25 22:00:11;;;;;;;5.82;1.77;;;;;;;;;;10364443;28;20025;-51
2022/10/25 22:05:11;;;;;;;5.70;1.70;;;;;;;;;;10359089;28;20083;-51
2022/10/25 22:10:11;;;;;;;6.82;2.00;;;;;;;;;;10360662;28;20401;-51
2022/10/25 22:15:12;;;;;;;7.95;1.75;;;;;;;;;;10360434;28;20386;-53
2022/10/25 22:20:12;;;;;;;3.83;1.67;;;;;;;;;;10359441;28;20367;-51
2022/10/25 22:25:12;;;;;;;5.80;1.52;;;;;;;;;;10364418;28;20477;-48
2022/10/25 22:30:12;;;;;;;4.03;1.60;;;;;;;;;;10357961;28;20477;-48
2022/10/25 22:35:13;;;;;;;8.98;1.77;;;;;;;;;;10376954;28;20030;-48
2022/10/25 22:40:13;;;;;;;10.90;2.53;;;;;;;;;;10367608;28;20188;-48
2022/10/25 22:45:13;;;;;;;8.27;2.53;;;;;;;;;;10365446;28;20042;-51
2022/10/25 22:50:14;;;;;;;9.70;2.63;;;;;;;;;;10361798;28;20379;-48
2022/10/25 22:55:14;;;;;;;5.88;2.42;;;;;;;;;;10359146;28;20033;-54
2022/10/25 23:00:14;;;;;;;13.02;2.40;;;;;;;;;;10359980;28;20029;-49
2022/10/25 23:05:14;;;;;;;9.30;2.20;;;;;;;;;;10367509;28;20026;-50
2022/10/25 23:10:15;;;;;;;11.10;2.33;;;;;;;;;;10358506;28;20034;-52
2022/10/25 23:15:15;;;;;;;6.63;2.10;;;;;;;;;;10365164;28;20101;-48
2022/10/25 23:20:15;;;;;;;12.85;2.30;;;;;;;;;;10360045;28;20028;-51
2022/10/25 23:25:15;;;;;;;11.63;2.15;;;;;;;;;;10362434;28;20025;-48
2022/10/25 23:30:16;;;;;;;8.85;2.80;;;;;;;;;;10358834;28;20022;-48
2022/10/25 23:35:16;;;;;;;7.20;1.97;;;;;;;;;;10366855;28;20037;-51
2022/10/25 23:40:16;;;;;;;8.88;2.20;;;;;;;;;;10363240;28;20037;-51
2022/10/25 23:45:17;;;;;;;4.63;2.23;;;;;;;;;;10366284;28;20037;-51
2022/10/25 23:50:17;;;;;;;8.70;2.30;;;;;;;;;;10357877;28;20022;-49
2022/10/25 23:55:17;;;;;;;8.40;2.22;;;;;;;;;;10357883;28;20069;-49
